Wasioja, Minnesota
Current Conditions -  °F | °C
As of 9:34 AM on Friday 19 Dec 2014 (Local Time) from KTOB Reporting Station
Haze Haze  
Wind Chill: 16°   Ceiling: 1600
Heat Index: 25°   Visibility: 5mi
Dew Point: 21°   Wind: 8mph
Humidity: 86%   Direction: 160°SSE
Pressure: 30.23"   Gusts: NA
Location:  44.0228°N, 92.8616°W
Report Text: KTOB 191534Z AUTO 16007KT 5SM BR OVC016 M04/M06 A3023 RMK AO2
Loading
Personal Weather Stations






























Interactive Weather Map New forecast layout! Learn more

10-Day Weather Forecast

Advertisements
Track Severe Weather on mobile